createdAt,value
2023-05-02T00:01:36.227Z,6.90
2023-05-02T00:04:03.470Z,5.82
2023-05-02T00:06:31.859Z,6.22
2023-05-02T00:08:59.171Z,5.75
2023-05-02T00:11:27.514Z,5.63
2023-05-02T00:13:54.521Z,5.32
2023-05-02T00:16:21.620Z,6.30
2023-05-02T00:18:49.339Z,6.82
2023-05-02T00:21:16.506Z,7.70
2023-05-02T00:23:43.325Z,5.32
2023-05-02T00:26:10.686Z,5.55
2023-05-02T00:28:37.768Z,5.97
2023-05-02T00:31:07.988Z,6.30
2023-05-02T00:33:34.709Z,5.85
2023-05-02T00:36:02.088Z,6.60
2023-05-02T00:38:28.931Z,6.25
2023-05-02T00:40:56.518Z,6.53
2023-05-02T00:43:23.229Z,7.18
2023-05-02T00:45:52.113Z,6.65
2023-05-02T00:48:21.090Z,7.05
2023-05-02T00:50:48.179Z,6.10
2023-05-02T00:53:15.963Z,6.10
2023-05-02T00:55:43.200Z,6.30
2023-05-02T00:58:15.231Z,5.50
2023-05-02T01:01:05.341Z,6.10
2023-05-02T01:03:36.729Z,7.32
2023-05-02T01:06:49.703Z,6.45
2023-05-02T01:09:30.998Z,7.03
2023-05-02T01:12:04.212Z,6.18
2023-05-02T01:14:45.576Z,6.72
2023-05-02T01:17:15.542Z,6.32
2023-05-02T01:19:52.903Z,6.57
2023-05-02T01:22:21.376Z,6.88
2023-05-02T01:24:58.263Z,7.82
2023-05-02T01:27:37.790Z,6.43
2023-05-02T01:30:06.397Z,7.03
2023-05-02T01:32:37.338Z,5.82
2023-05-02T01:35:05.987Z,6.60
2023-05-02T01:37:36.284Z,6.80
2023-05-02T01:40:06.093Z,6.55
2023-05-02T01:42:36.059Z,6.72
2023-05-02T01:45:05.510Z,7.38
2023-05-02T01:47:35.202Z,7.22
2023-05-02T01:50:07.294Z,6.78
2023-05-02T01:52:35.392Z,7.18
2023-05-02T01:55:05.086Z,6.80
2023-05-02T01:57:32.849Z,6.90
2023-05-02T02:00:00.751Z,7.30
2023-05-02T02:07:51.890Z,6.18
2023-05-02T02:13:13.770Z,6.95
2023-05-02T02:26:29.830Z,7.10
2023-05-02T02:28:56.700Z,6.50
2023-05-02T02:31:26.207Z,7.22
2023-05-02T02:41:52.633Z,7.00
2023-05-02T02:44:30.941Z,7.10
2023-05-02T02:47:09.630Z,7.15
2023-05-02T02:52:25.791Z,6.50
2023-05-02T02:55:12.476Z,7.63
2023-05-02T02:58:09.197Z,8.38
2023-05-02T03:00:36.569Z,7.55
2023-05-02T03:03:03.617Z,7.38
2023-05-02T03:05:33.271Z,7.30
2023-05-02T03:08:01.036Z,6.93
2023-05-02T03:10:27.714Z,6.03
2023-05-02T03:12:55.672Z,6.00
2023-05-02T03:15:41.635Z,5.40
2023-05-02T03:18:08.688Z,4.60
2023-05-02T03:20:35.416Z,4.35
2023-05-02T03:23:02.624Z,5.15
2023-05-02T03:25:29.666Z,4.60
2023-05-02T03:27:57.990Z,5.45
2023-05-02T03:30:24.704Z,5.20
2023-05-02T03:32:51.549Z,4.95
2023-05-02T03:35:18.529Z,4.32
2023-05-02T03:37:45.715Z,4.30
2023-05-02T03:40:12.992Z,4.40
2023-05-02T03:42:40.032Z,3.80
2023-05-02T03:45:07.719Z,4.45
2023-05-02T03:47:37.141Z,4.53
2023-05-02T03:50:04.093Z,4.40
2023-05-02T03:52:31.228Z,4.55
2023-05-02T03:54:57.915Z,4.50
2023-05-02T03:57:25.021Z,3.63
2023-05-02T03:59:53.638Z,4.30
2023-05-02T04:02:20.757Z,4.47
2023-05-02T04:04:47.771Z,3.67
2023-05-02T04:07:18.757Z,4.75
2023-05-02T04:09:46.090Z,4.20
2023-05-02T04:12:13.178Z,4.80
2023-05-02T04:14:40.023Z,4.80
2023-05-02T04:17:07.042Z,4.43
2023-05-02T04:19:35.912Z,4.88
2023-05-02T04:22:03.454Z,5.47
2023-05-02T04:24:30.216Z,4.85
2023-05-02T04:26:56.973Z,5.70
2023-05-02T04:29:23.709Z,6.28
2023-05-02T04:31:51.578Z,4.75
2023-05-02T04:34:18.661Z,5.57
2023-05-02T04:36:46.900Z,5.63
2023-05-02T04:39:13.612Z,6.45
2023-05-02T04:41:43.120Z,5.57
2023-05-02T04:44:12.219Z,4.90
2023-05-02T04:46:38.953Z,4.93
2023-05-02T04:49:07.006Z,5.18
2023-05-02T04:51:33.740Z,5.03
2023-05-02T04:54:00.962Z,5.25
2023-05-02T04:56:27.676Z,5.63
2023-05-02T04:58:54.421Z,5.55
2023-05-02T05:01:24.533Z,5.50
2023-05-02T05:03:51.491Z,5.15
2023-05-02T05:06:19.833Z,6.80
2023-05-02T05:08:46.636Z,6.40
2023-05-02T05:11:16.596Z,6.90
2023-05-02T05:13:43.310Z,5.70
2023-05-02T05:16:10.506Z,5.78
2023-05-02T05:18:41.092Z,5.53
2023-05-02T05:21:09.138Z,7.60
2023-05-02T05:23:36.810Z,6.80
2023-05-02T05:26:14.419Z,7.88
2023-05-02T05:28:41.571Z,6.82
2023-05-02T05:31:09.820Z,6.55
2023-05-02T05:33:38.144Z,6.15
2023-05-02T05:36:14.990Z,6.80
2023-05-02T05:38:42.296Z,6.57
2023-05-02T05:41:09.489Z,6.05
2023-05-02T05:43:37.954Z,7.50
2023-05-02T05:46:06.000Z,6.50
2023-05-02T05:48:32.781Z,5.87
2023-05-02T05:51:07.077Z,6.15
2023-05-02T05:53:34.429Z,6.38
2023-05-02T05:56:09.589Z,6.20
2023-05-02T05:58:38.927Z,7.40
2023-05-02T06:01:06.637Z,6.78
2023-05-02T06:03:34.942Z,7.00
2023-05-02T06:06:02.027Z,6.20
2023-05-02T06:08:30.566Z,5.67
2023-05-02T06:10:57.740Z,5.33
2023-05-02T06:13:24.530Z,5.10
2023-05-02T06:15:51.618Z,6.10
2023-05-02T06:18:18.650Z,6.33
2023-05-02T06:20:45.689Z,5.60
2023-05-02T06:23:12.448Z,4.83
2023-05-02T06:25:41.331Z,4.77
2023-05-02T06:28:09.501Z,5.23
2023-05-02T06:30:39.427Z,4.53
2023-05-02T06:33:07.908Z,5.53
2023-05-02T06:35:35.647Z,5.43
2023-05-02T06:38:04.658Z,5.80
2023-05-02T06:40:31.342Z,5.47
2023-05-02T06:42:58.045Z,5.90
2023-05-02T06:45:25.191Z,5.90
2023-05-02T06:47:52.072Z,5.70
2023-05-02T06:50:22.050Z,5.20
2023-05-02T06:52:49.963Z,6.10
2023-05-02T06:55:16.938Z,6.03
2023-05-02T06:57:43.797Z,5.97
2023-05-02T07:00:11.089Z,6.60
2023-05-02T07:02:40.744Z,5.70
2023-05-02T07:05:09.320Z,6.50
2023-05-02T07:07:36.611Z,6.67
2023-05-02T07:10:04.364Z,7.37
2023-05-02T07:12:31.318Z,5.87
2023-05-02T07:14:57.983Z,5.93
2023-05-02T07:17:25.997Z,6.70
2023-05-02T07:19:53.069Z,5.63
2023-05-02T07:22:21.354Z,6.30
2023-05-02T07:24:56.864Z,5.43
2023-05-02T07:27:24.048Z,4.80
2023-05-02T07:29:51.531Z,8.77
2023-05-02T07:32:18.391Z,6.93
2023-05-02T07:34:45.394Z,6.57
2023-05-02T07:37:12.072Z,5.40
2023-05-02T07:39:38.810Z,5.77
2023-05-02T07:42:07.251Z,6.93
2023-05-02T07:44:35.171Z,6.37
2023-05-02T07:47:01.897Z,7.10
2023-05-02T07:49:28.742Z,5.57
2023-05-02T07:51:56.726Z,6.57
2023-05-02T07:54:26.542Z,6.70
2023-05-02T07:56:53.791Z,6.47
2023-05-02T07:59:21.001Z,6.40
2023-05-02T08:01:48.183Z,6.80
2023-05-02T08:04:15.297Z,6.67
2023-05-02T08:06:45.312Z,7.90
2023-05-02T08:09:12.144Z,5.43
2023-05-02T08:11:38.818Z,6.60
2023-05-02T08:14:05.601Z,5.80
2023-05-02T08:16:32.856Z,5.63
2023-05-02T08:18:59.647Z,5.97
2023-05-02T08:21:27.659Z,5.70
2023-05-02T08:23:59.351Z,5.97
2023-05-02T08:26:26.281Z,6.07
2023-05-02T08:28:55.224Z,6.00
2023-05-02T08:31:22.081Z,5.80
2023-05-02T08:33:49.423Z,5.67
2023-05-02T08:36:17.705Z,6.50
2023-05-02T08:38:45.770Z,5.83
2023-05-02T08:41:17.823Z,7.07
2023-05-02T08:43:46.722Z,5.83
2023-05-02T08:46:16.002Z,6.00
2023-05-02T08:48:45.468Z,6.13
2023-05-02T08:51:14.540Z,5.00
2023-05-02T08:53:42.269Z,6.97
2023-05-02T08:56:10.745Z,5.40
2023-05-02T08:58:38.916Z,6.53
2023-05-02T09:01:21.366Z,5.60
2023-05-02T09:03:52.372Z,6.50
2023-05-02T09:06:22.270Z,7.33
2023-05-02T09:08:52.536Z,7.20
2023-05-02T09:11:23.650Z,7.50
2023-05-02T09:13:54.813Z,7.33
2023-05-02T09:16:26.186Z,6.00
2023-05-02T09:18:55.361Z,7.20
2023-05-02T09:21:25.568Z,6.07
2023-05-02T09:23:58.120Z,5.70
2023-05-02T09:26:33.521Z,5.50
2023-05-02T09:29:03.115Z,7.50
2023-05-02T09:34:12.035Z,6.93
2023-05-02T09:36:47.102Z,5.53
2023-05-02T09:39:16.412Z,6.60
2023-05-02T09:41:46.069Z,7.57
2023-05-02T09:44:15.476Z,6.53
2023-05-02T09:46:47.557Z,7.17
2023-05-02T09:49:15.484Z,7.03
2023-05-02T09:51:44.988Z,7.10
2023-05-02T09:54:16.886Z,7.63
2023-05-02T09:56:56.929Z,6.40
2023-05-02T09:59:24.634Z,7.03
2023-05-02T10:02:02.563Z,6.57
2023-05-02T10:04:32.366Z,7.23
2023-05-02T10:07:01.091Z,6.50
2023-05-02T10:09:29.847Z,7.70
2023-05-02T10:11:56.846Z,7.20
2023-05-02T10:14:29.609Z,6.43
2023-05-02T10:17:13.194Z,6.70
2023-05-02T10:19:55.805Z,5.83
2023-05-02T10:22:23.644Z,5.80
2023-05-02T10:24:53.492Z,6.30
2023-05-02T10:27:20.488Z,5.57
2023-05-02T10:29:48.557Z,6.13
2023-05-02T10:32:18.063Z,5.80
2023-05-02T10:34:46.345Z,6.47
2023-05-02T10:37:15.358Z,5.40
2023-05-02T10:39:42.176Z,6.87
2023-05-02T10:42:10.932Z,5.93
2023-05-02T10:44:40.165Z,6.27
2023-05-02T10:47:24.314Z,6.47
2023-05-02T10:50:02.089Z,7.17
2023-05-02T10:52:39.596Z,5.50
2023-05-02T10:55:23.825Z,7.57
2023-05-02T10:58:13.234Z,6.93
2023-05-02T11:00:40.041Z,5.90
2023-05-02T11:03:06.934Z,5.77
2023-05-02T11:06:07.854Z,7.17
2023-05-02T11:08:36.159Z,6.00
2023-05-02T11:11:38.583Z,6.10
2023-05-02T11:14:05.337Z,4.60
2023-05-02T11:17:11.227Z,5.77
2023-05-02T11:19:37.908Z,6.10
2023-05-02T11:22:28.646Z,5.47
2023-05-02T11:24:56.580Z,6.33
2023-05-02T11:27:29.839Z,5.13
2023-05-02T11:30:07.146Z,6.10
2023-05-02T11:32:50.241Z,6.47
2023-05-02T11:35:24.999Z,6.53
2023-05-02T11:37:56.295Z,6.20
2023-05-02T11:40:23.799Z,6.07
2023-05-02T11:42:50.774Z,6.10
2023-05-02T11:45:19.249Z,6.13
2023-05-02T11:47:48.473Z,6.00
2023-05-02T11:50:16.152Z,6.80
2023-05-02T11:52:44.658Z,6.17
2023-05-02T11:55:15.021Z,6.30
2023-05-02T11:57:43.001Z,5.20
2023-05-02T12:00:13.355Z,6.33
2023-05-02T12:02:47.952Z,5.73
2023-05-02T12:05:15.776Z,6.27
2023-05-02T12:07:49.486Z,6.30
2023-05-02T12:10:16.264Z,5.53
2023-05-02T12:12:45.271Z,5.90
2023-05-02T12:15:12.841Z,5.90
2023-05-02T12:17:42.298Z,7.37
2023-05-02T12:20:13.034Z,6.10
2023-05-02T12:22:40.331Z,7.10
2023-05-02T12:25:08.334Z,5.53
2023-05-02T12:27:35.381Z,5.93
2023-05-02T12:30:03.080Z,5.53
2023-05-02T12:32:32.345Z,6.80
2023-05-02T12:35:00.181Z,5.23
2023-05-02T12:37:28.713Z,4.67
2023-05-02T12:39:57.175Z,5.83
2023-05-02T12:42:26.354Z,5.13
2023-05-02T12:44:54.920Z,4.93
2023-05-02T12:47:23.320Z,5.57
2023-05-02T12:49:53.893Z,4.37
2023-05-02T12:52:22.842Z,5.30
2023-05-02T12:54:50.256Z,4.13
2023-05-02T12:57:24.448Z,4.47
2023-05-02T12:59:57.040Z,4.37
2023-05-02T13:02:25.989Z,4.70
2023-05-02T13:04:54.629Z,5.00
2023-05-02T13:07:21.328Z,3.30
2023-05-02T13:09:48.159Z,3.33
2023-05-02T13:12:16.717Z,3.30
2023-05-02T13:14:43.909Z,2.73
2023-05-02T13:17:11.547Z,2.83
2023-05-02T13:19:47.551Z,3.70
2023-05-02T13:22:22.000Z,4.10
2023-05-02T13:24:48.828Z,4.10
2023-05-02T13:27:18.351Z,3.50
2023-05-02T13:29:45.938Z,3.90
2023-05-02T13:32:13.185Z,4.70
2023-05-02T13:34:39.878Z,4.00
2023-05-02T13:37:06.737Z,3.70
2023-05-02T13:39:33.530Z,3.90
2023-05-02T13:42:03.607Z,3.93
2023-05-02T13:44:31.943Z,4.70
2023-05-02T13:47:01.090Z,3.70
2023-05-02T13:49:31.033Z,4.40
2023-05-02T13:51:59.874Z,3.80
2023-05-02T13:54:26.810Z,4.07
2023-05-02T13:56:54.042Z,4.37
2023-05-02T13:59:21.107Z,4.43
2023-05-02T14:01:48.836Z,4.50
2023-05-02T14:04:17.159Z,4.33
2023-05-02T14:06:44.153Z,4.00
2023-05-02T14:09:14.365Z,4.20
2023-05-02T14:11:41.109Z,4.60
2023-05-02T14:14:09.688Z,4.60
2023-05-02T14:16:36.482Z,3.93
2023-05-02T14:19:03.238Z,4.63
2023-05-02T14:21:29.926Z,4.20
2023-05-02T14:23:56.615Z,3.70
2023-05-02T14:26:23.477Z,4.43
2023-05-02T14:28:50.606Z,4.53
2023-05-02T14:31:17.759Z,4.53
2023-05-02T14:33:45.074Z,4.00
2023-05-02T14:36:13.447Z,4.23
2023-05-02T14:38:40.129Z,5.13
2023-05-02T14:41:07.458Z,4.53
2023-05-02T14:43:36.559Z,4.90
2023-05-02T14:46:04.011Z,4.97
2023-05-02T14:48:30.721Z,4.90
2023-05-02T14:50:59.187Z,4.57
2023-05-02T14:53:26.943Z,5.07
2023-05-02T14:55:55.015Z,4.43
2023-05-02T14:58:21.793Z,4.30
2023-05-02T15:00:48.802Z,4.80
2023-05-02T15:03:15.635Z,5.03
2023-05-02T15:05:42.858Z,4.40
2023-05-02T15:08:09.700Z,5.40
2023-05-02T15:10:40.192Z,4.43
2023-05-02T15:13:07.636Z,6.07
2023-05-02T15:15:34.678Z,4.73
2023-05-02T15:18:03.510Z,4.27
2023-05-02T15:20:33.111Z,4.30
2023-05-02T15:23:04.059Z,4.63
2023-05-02T15:25:31.183Z,5.80
2023-05-02T15:27:57.982Z,4.20
2023-05-02T15:30:26.502Z,4.93
2023-05-02T15:32:53.282Z,5.30
2023-05-02T15:35:22.562Z,4.90
2023-05-02T15:37:50.695Z,5.10
2023-05-02T15:40:20.155Z,4.07
2023-05-02T15:42:47.789Z,5.07
2023-05-02T15:45:17.287Z,4.50
2023-05-02T15:47:44.021Z,4.90
2023-05-02T15:50:11.459Z,6.23
2023-05-02T15:52:39.786Z,6.80
2023-05-02T15:55:06.777Z,6.90
2023-05-02T15:57:33.810Z,6.70
2023-05-02T16:00:03.518Z,6.90
2023-05-02T16:02:31.304Z,6.50
2023-05-02T16:04:58.265Z,7.10
2023-05-02T16:07:25.057Z,7.60
2023-05-02T16:09:51.990Z,8.73
2023-05-02T16:12:18.748Z,7.97
2023-05-02T16:14:47.623Z,7.93
2023-05-02T16:17:14.358Z,8.43
2023-05-02T16:19:41.150Z,8.90
2023-05-02T16:22:10.312Z,7.90
2023-05-02T16:24:37.605Z,8.80
2023-05-02T16:27:05.230Z,8.43
2023-05-02T16:29:32.725Z,8.20
2023-05-02T16:32:00.158Z,7.77
2023-05-02T16:34:29.147Z,8.70
2023-05-02T16:36:57.437Z,8.27
2023-05-02T16:39:24.494Z,7.77
2023-05-02T16:41:51.201Z,7.73
2023-05-02T16:44:18.418Z,7.67
2023-05-02T16:46:46.947Z,7.97
2023-05-02T16:49:14.055Z,8.30
2023-05-02T16:51:42.458Z,7.97
2023-05-02T16:54:09.550Z,7.93
2023-05-02T16:56:36.613Z,8.27
2023-05-02T16:59:07.345Z,8.40
2023-05-02T17:01:36.622Z,8.37
2023-05-02T17:04:11.205Z,8.00
2023-05-02T17:06:38.048Z,7.87
2023-05-02T17:09:04.879Z,8.73
2023-05-02T17:11:31.636Z,7.83
2023-05-02T17:13:59.077Z,8.03
2023-05-02T17:16:28.038Z,7.63
2023-05-02T17:18:57.047Z,5.60
2023-05-02T17:21:24.366Z,5.40
2023-05-02T17:23:54.249Z,5.60
2023-05-02T17:26:21.102Z,5.00
2023-05-02T17:28:50.792Z,5.20
2023-05-02T17:31:17.549Z,4.83
2023-05-02T17:33:48.548Z,4.37
2023-05-02T17:36:26.656Z,5.40
2023-05-02T17:38:55.029Z,4.60
2023-05-02T17:41:21.901Z,4.70
2023-05-02T17:43:49.230Z,4.40
2023-05-02T17:46:16.465Z,4.57
2023-05-02T17:48:47.776Z,5.00
2023-05-02T17:51:18.028Z,5.40
2023-05-02T17:53:49.643Z,5.50
2023-05-02T17:56:20.846Z,4.93
2023-05-02T17:58:55.532Z,4.33
2023-05-02T18:01:25.443Z,5.30
2023-05-02T18:03:55.564Z,5.07
2023-05-02T18:06:22.429Z,4.30
2023-05-02T18:08:50.842Z,4.43
2023-05-02T18:11:19.150Z,4.90
2023-05-02T18:13:49.012Z,5.37
2023-05-02T18:16:15.883Z,4.83
2023-05-02T18:18:42.676Z,5.43
2023-05-02T18:21:12.559Z,5.47
2023-05-02T18:23:41.367Z,5.63
2023-05-02T18:26:15.061Z,5.43
2023-05-02T18:28:44.458Z,6.27
2023-05-02T18:31:17.760Z,6.07
2023-05-02T18:33:45.747Z,7.23
2023-05-02T18:36:14.093Z,7.00
2023-05-02T18:38:42.698Z,5.77
2023-05-02T18:41:09.424Z,5.00
2023-05-02T18:43:36.740Z,5.40
2023-05-02T18:46:05.815Z,5.53
2023-05-02T18:48:33.231Z,6.00
2023-05-02T18:51:00.524Z,5.00
2023-05-02T18:53:27.823Z,5.20
2023-05-02T18:55:58.007Z,4.70
2023-05-02T18:58:28.201Z,5.00
2023-05-02T19:00:57.671Z,5.00
2023-05-02T19:03:25.801Z,5.67
2023-05-02T19:05:53.338Z,6.10
2023-05-02T19:08:20.220Z,5.10
2023-05-02T19:10:47.429Z,6.03
2023-05-02T19:13:14.624Z,5.10
2023-05-02T19:15:41.608Z,4.37
2023-05-02T19:18:08.757Z,5.00
2023-05-02T19:20:35.950Z,5.43
2023-05-02T19:23:19.054Z,5.73
2023-05-02T19:25:47.216Z,4.70
2023-05-02T19:28:16.042Z,5.40
2023-05-02T19:30:45.575Z,5.67
2023-05-02T19:33:12.581Z,4.20
2023-05-02T19:35:39.903Z,4.93
2023-05-02T19:38:06.692Z,4.30
2023-05-02T19:40:33.699Z,4.43
2023-05-02T19:43:00.666Z,4.97
2023-05-02T19:45:27.812Z,4.93
2023-05-02T19:47:56.694Z,4.73
2023-05-02T19:50:26.652Z,4.10
2023-05-02T19:52:53.422Z,3.47
2023-05-02T19:55:21.196Z,3.70
2023-05-02T19:57:48.860Z,4.37
2023-05-02T20:00:16.194Z,4.37
2023-05-02T20:02:43.135Z,4.47
2023-05-02T20:05:10.686Z,3.80
2023-05-02T20:07:37.485Z,4.53
2023-05-02T20:10:05.053Z,4.67
2023-05-02T20:12:32.033Z,4.40
2023-05-02T20:14:58.845Z,4.53
2023-05-02T20:17:25.979Z,4.13
2023-05-02T20:19:52.819Z,3.97
2023-05-02T20:22:19.971Z,3.88
2023-05-02T20:24:48.119Z,5.15
2023-05-02T20:27:20.731Z,5.22
2023-05-02T20:29:47.680Z,4.43
2023-05-02T20:32:14.640Z,3.60
2023-05-02T20:34:41.701Z,4.32
2023-05-02T20:37:08.813Z,4.05
2023-05-02T20:39:36.526Z,4.07
2023-05-02T20:42:06.083Z,3.90
2023-05-02T20:44:36.570Z,4.00
2023-05-02T20:47:06.884Z,4.30
2023-05-02T20:49:33.957Z,4.10
2023-05-02T20:52:06.061Z,4.47
2023-05-02T20:54:32.804Z,3.95
2023-05-02T20:57:00.084Z,4.40
2023-05-02T20:59:26.908Z,3.92
2023-05-02T21:01:53.891Z,4.18
2023-05-02T21:04:21.277Z,4.18
2023-05-02T21:06:51.644Z,3.78
2023-05-02T21:09:24.277Z,3.90
2023-05-02T21:11:50.996Z,3.95
2023-05-02T21:14:17.767Z,4.40
2023-05-02T21:16:44.740Z,3.70
2023-05-02T21:19:11.871Z,3.90
2023-05-02T21:21:38.869Z,3.85
2023-05-02T21:24:06.481Z,4.78
2023-05-02T21:26:34.380Z,4.13
2023-05-02T21:29:01.218Z,4.03
2023-05-02T21:31:28.232Z,4.63
2023-05-02T21:33:54.920Z,5.07
2023-05-02T21:36:22.120Z,4.25
2023-05-02T21:38:48.802Z,4.40
2023-05-02T21:41:15.528Z,4.75
2023-05-02T21:43:42.678Z,4.53
2023-05-02T21:46:11.817Z,4.82
2023-05-02T21:48:39.332Z,4.50
2023-05-02T21:51:10.765Z,5.07
2023-05-02T21:53:38.000Z,5.32
2023-05-02T21:56:06.506Z,4.65
2023-05-02T21:58:35.532Z,6.47
2023-05-02T22:01:03.438Z,4.40
2023-05-02T22:03:30.998Z,5.18
2023-05-02T22:06:06.839Z,5.45
2023-05-02T22:08:34.175Z,5.90
2023-05-02T22:11:04.953Z,5.00
2023-05-02T22:13:32.071Z,4.38
2023-05-02T22:15:59.008Z,5.60
2023-05-02T22:18:26.178Z,4.43
2023-05-02T22:20:52.986Z,4.57
2023-05-02T22:23:20.445Z,4.97
2023-05-02T22:25:48.277Z,4.72
2023-05-02T22:28:17.214Z,5.45
2023-05-02T22:30:45.222Z,5.75
2023-05-02T22:33:13.130Z,4.88
2023-05-02T22:35:40.515Z,5.50
2023-05-02T22:38:10.944Z,6.18
2023-05-02T22:40:38.232Z,4.95
2023-05-02T22:43:05.585Z,5.70
2023-05-02T22:45:33.918Z,5.70
2023-05-02T22:48:01.251Z,6.03
2023-05-02T22:50:28.992Z,5.35
2023-05-02T22:52:59.966Z,5.47
2023-05-02T22:55:26.664Z,5.55
2023-05-02T22:57:53.430Z,5.93
2023-05-02T23:00:21.030Z,7.55
2023-05-02T23:02:47.759Z,5.47
2023-05-02T23:05:19.392Z,5.03
2023-05-02T23:07:50.795Z,5.57
2023-05-02T23:10:18.274Z,6.53
2023-05-02T23:12:45.325Z,5.80
2023-05-02T23:15:12.424Z,5.97
2023-05-02T23:17:41.501Z,5.95
2023-05-02T23:20:12.918Z,5.85
2023-05-02T23:22:46.105Z,4.75
2023-05-02T23:25:15.633Z,5.53
2023-05-02T23:27:44.503Z,6.40
2023-05-02T23:30:11.748Z,5.35
2023-05-02T23:32:39.661Z,6.97
2023-05-02T23:35:07.264Z,6.40
2023-05-02T23:37:34.269Z,5.68
2023-05-02T23:40:01.469Z,5.00
2023-05-02T23:42:30.145Z,6.20
2023-05-02T23:45:06.356Z,5.53
2023-05-02T23:47:33.169Z,5.68
2023-05-02T23:50:00.450Z,5.03
2023-05-02T23:52:27.946Z,5.38
2023-05-02T23:54:55.789Z,5.22
2023-05-02T23:57:22.544Z,5.13
2023-05-02T23:59:52.663Z,4.43
